Time;durP1;ratioP1;P1;durP2;ratioP2;P2;SDS_P1;SDS_P2;PMS_P1;PMS_P2;Temp;Humidity;BMP_temperature;BMP_pressure;BME280_temperature;BME280_humidity;BME280_pressure;Samples;Min_cycle;Max_cycle;Signal;HPM_P1;HPM_P2
2023/08/23 00:00:36;;;;;;;2.55;0.90;;;;;;;24.57;44.38;101767.09;5074426;28;20029;-62
2023/08/23 00:03:02;;;;;;;6.60;1.10;;;;;;;24.57;44.31;101779.94;5075835;28;20032;-62
2023/08/23 00:05:27;;;;;;;5.28;1.08;;;;;;;24.53;44.75;101779.50;5074490;28;20032;-62
2023/08/23 00:07:53;;;;;;;2.22;0.88;;;;;;;24.44;44.68;101764.25;5074441;28;20407;-62
2023/08/23 00:10:18;;;;;;;5.20;1.50;;;;;;;24.43;44.73;101770.75;5074321;28;20044;-61
2023/08/23 00:12:43;;;;;;;2.67;0.80;;;;;;;24.38;44.55;101773.25;5073928;28;20198;-62
2023/08/23 00:15:09;;;;;;;2.50;0.70;;;;;;;24.33;45.11;101775.72;5075700;28;20032;-62
2023/08/23 00:17:34;;;;;;;1.27;0.80;;;;;;;24.28;44.96;101768.13;5075694;28;20499;-61
2023/08/23 00:20:00;;;;;;;4.55;1.50;;;;;;;24.27;45.00;101766.41;5074583;28;20028;-62
2023/08/23 00:22:25;;;;;;;3.33;0.85;;;;;;;24.24;44.33;101765.94;5074130;28;20162;-62
2023/08/23 00:24:50;;;;;;;1.05;0.85;;;;;;;24.22;44.47;101762.56;5057132;28;20052;-62
2023/08/23 00:27:16;;;;;;;2.58;1.40;;;;;;;24.19;44.90;101757.47;5075736;28;20043;-62
2023/08/23 00:29:42;;;;;;;0.90;0.70;;;;;;;24.15;44.74;101756.16;5076255;28;20492;-60
2023/08/23 00:32:07;;;;;;;3.10;1.08;;;;;;;24.13;45.02;101747.28;5077576;28;20036;-62
2023/08/23 00:34:32;;;;;;;2.63;0.90;;;;;;;24.13;45.73;101741.81;5077919;28;20040;-64
2023/08/23 00:36:58;;;;;;;2.83;1.13;;;;;;;24.10;45.42;101743.06;5076897;28;20468;-64
2023/08/23 00:39:23;;;;;;;3.15;1.50;;;;;;;24.11;45.37;101744.75;5074465;28;20052;-62
2023/08/23 00:41:49;;;;;;;1.00;0.77;;;;;;;24.10;45.69;101753.16;5074098;28;20518;-62
2023/08/23 00:44:14;;;;;;;3.30;1.05;;;;;;;24.06;45.44;101749.97;5073768;28;20118;-61
2023/08/23 00:46:39;;;;;;;2.17;0.73;;;;;;;24.05;45.03;101745.50;5075387;28;20044;-61
2023/08/23 00:49:05;;;;;;;3.03;0.90;;;;;;;24.05;45.28;101750.97;5073991;28;20044;-62
2023/08/23 00:51:31;;;;;;;3.83;0.85;;;;;;;24.01;45.27;101748.84;5073907;28;20475;-62
2023/08/23 00:53:57;;;;;;;3.05;1.10;;;;;;;23.99;45.42;101750.91;5073958;28;20116;-62
2023/08/23 00:56:22;;;;;;;1.10;0.82;;;;;;;23.96;44.97;101751.28;5073783;28;20033;-61
2023/08/23 00:58:48;;;;;;;5.30;1.10;;;;;;;23.93;45.89;101741.56;5073714;28;20025;-61
2023/08/23 01:01:14;;;;;;;2.80;1.23;;;;;;;23.91;45.58;101738.19;5073919;28;20056;-61
2023/08/23 01:03:39;;;;;;;1.63;1.05;;;;;;;23.90;45.89;101736.50;5073522;28;20399;-61
2023/08/23 01:06:22;;;;;;;2.95;0.80;;;;;;;23.86;45.69;101731.59;5073675;28;20052;-61
2023/08/23 01:08:58;;;;;;;2.22;1.30;;;;;;;23.82;45.73;101730.28;5073452;28;20045;-62
2023/08/23 01:11:27;;;;;;;4.70;1.30;;;;;;;23.78;45.64;101738.88;5074622;28;20073;-61
2023/08/23 01:13:55;;;;;;;5.85;1.80;;;;;;;23.76;45.43;101734.66;5073683;28;20495;-61
2023/08/23 01:16:21;;;;;;;1.77;0.90;;;;;;;23.74;45.22;101726.66;5075544;28;20044;-62
2023/08/23 01:18:47;;;;;;;3.58;1.33;;;;;;;23.73;45.15;101735.88;5056792;28;20541;-62
2023/08/23 01:21:14;;;;;;;1.83;0.82;;;;;;;23.72;45.69;101728.72;5073479;28;20036;-62
2023/08/23 01:23:41;;;;;;;1.00;0.63;;;;;;;23.69;45.66;101734.59;5073644;28;20068;-62
2023/08/23 01:26:06;;;;;;;6.15;1.48;;;;;;;23.70;46.14;101740.91;5057215;28;20039;-61
2023/08/23 01:28:32;;;;;;;1.55;1.27;;;;;;;23.69;46.02;101740.06;5075234;28;20380;-61
2023/08/23 01:30:59;;;;;;;2.10;0.95;;;;;;;23.69;45.99;101745.53;5075772;28;20060;-61
2023/08/23 01:33:33;;;;;;;2.13;0.98;;;;;;;23.69;46.42;101748.28;5073658;28;20035;-61
2023/08/23 01:36:08;;;;;;;4.13;0.95;;;;;;;23.65;45.46;101746.94;5074002;28;20377;-62
2023/08/23 01:38:34;;;;;;;3.25;1.00;;;;;;;23.64;45.80;101748.00;5073247;28;20086;-62
2023/08/23 01:41:00;;;;;;;6.00;0.90;;;;;;;23.61;45.80;101751.13;5056958;28;20029;-61
2023/08/23 01:43:26;;;;;;;2.08;1.15;;;;;;;23.57;46.17;101740.72;5073282;28;20510;-62
2023/08/23 01:45:51;;;;;;;3.22;1.13;;;;;;;23.58;45.89;101747.91;5057099;28;20040;-61
2023/08/23 01:48:16;;;;;;;0.82;0.75;;;;;;;23.56;46.18;101745.34;5073857;28;20034;-61
2023/08/23 01:50:42;;;;;;;1.20;0.90;;;;;;;23.54;46.36;101744.69;5072504;28;20052;-61
2023/08/23 01:53:08;;;;;;;5.35;1.40;;;;;;;23.51;45.81;101741.50;5072521;28;20024;-61
2023/08/23 01:55:33;;;;;;;7.72;2.72;;;;;;;23.49;46.46;101738.97;5073666;28;20063;-62
2023/08/23 01:57:59;;;;;;;3.45;1.45;;;;;;;23.45;46.65;101726.69;5073774;28;20040;-61
2023/08/23 02:00:24;;;;;;;7.70;1.58;;;;;;;23.44;46.74;101726.91;5072169;28;20633;-61
2023/08/23 02:02:50;;;;;;;5.32;1.30;;;;;;;23.42;46.45;101715.31;5072334;28;20470;-62
2023/08/23 02:05:15;;;;;;;4.05;1.00;;;;;;;23.40;46.49;101723.69;5072055;28;20042;-61
2023/08/23 02:07:41;;;;;;;1.60;1.50;;;;;;;23.39;45.78;101726.63;5055420;28;20040;-61
2023/08/23 02:10:06;;;;;;;5.68;1.52;;;;;;;23.34;46.38;101716.22;5073449;28;20052;-61
2023/08/23 02:12:32;;;;;;;7.90;1.55;;;;;;;23.34;45.94;101723.59;5073386;28;20514;-62
2023/08/23 02:14:57;;;;;;;1.23;1.10;;;;;;;23.32;46.99;101721.03;5072125;28;20453;-62
2023/08/23 02:17:23;;;;;;;2.90;1.42;;;;;;;23.32;45.95;101726.50;5073105;28;20089;-62
2023/08/23 02:19:49;;;;;;;2.85;1.15;;;;;;;23.29;46.52;101715.09;5055317;28;20541;-61
2023/08/23 02:22:14;;;;;;;1.85;1.13;;;;;;;23.30;46.66;101709.44;5071965;28;20115;-61
2023/08/23 02:24:39;;;;;;;1.90;1.38;;;;;;;23.27;46.25;101712.56;5071807;28;20040;-61
2023/08/23 02:27:05;;;;;;;2.28;1.27;;;;;;;23.24;46.71;101707.47;5073209;28;20060;-61
2023/08/23 02:29:30;;;;;;;2.08;0.98;;;;;;;23.25;46.92;101717.38;5073201;28;20034;-62
2023/08/23 02:31:55;;;;;;;2.50;1.23;;;;;;;23.23;46.16;101722.16;5072719;28;20052;-62
2023/08/23 02:34:21;;;;;;;2.63;0.73;;;;;;;23.21;46.88;101724.25;5072966;28;20032;-61
2023/08/23 02:36:46;;;;;;;2.03;1.10;;;;;;;23.16;46.15;101721.25;5072958;28;20032;-61
2023/08/23 02:39:12;;;;;;;6.93;1.33;;;;;;;23.15;46.49;101725.84;5071662;28;20123;-61
2023/08/23 02:41:37;;;;;;;1.77;1.05;;;;;;;23.14;46.21;101717.84;5071801;28;20094;-61
2023/08/23 02:44:02;;;;;;;4.22;1.45;;;;;;;23.10;46.37;101722.00;5071786;28;20471;-61
2023/08/23 02:46:28;;;;;;;4.15;1.30;;;;;;;23.10;47.11;101719.25;5054690;28;20036;-62
2023/08/23 02:48:53;;;;;;;3.95;0.93;;;;;;;23.08;46.61;101718.59;5071403;28;20459;-61
2023/08/23 02:51:18;;;;;;;4.70;1.50;;;;;;;23.06;46.60;101715.22;5072983;28;20048;-62
2023/08/23 02:53:44;;;;;;;2.85;1.10;;;;;;;23.07;46.93;101725.09;5071544;28;20032;-62
2023/08/23 02:56:09;;;;;;;1.40;0.88;;;;;;;23.05;47.09;101724.44;5071399;28;20028;-62
2023/08/23 02:58:35;;;;;;;4.47;1.13;;;;;;;23.04;46.43;101720.00;5071605;28;20047;-62
2023/08/23 03:01:02;;;;;;;3.10;1.20;;;;;;;23.04;46.96;101720.00;5073071;28;20025;-61
2023/08/23 03:03:28;;;;;;;2.03;1.30;;;;;;;23.04;46.91;101714.53;5072945;28;20021;-62
2023/08/23 03:05:55;;;;;;;2.35;1.20;;;;;;;23.04;47.16;101717.28;5071628;28;20033;-61
2023/08/23 03:08:22;;;;;;;2.85;1.67;;;;;;;23.03;46.47;101715.59;5054686;28;20086;-62
2023/08/23 03:10:47;;;;;;;10.52;1.15;;;;;;;22.99;47.56;101715.13;5070269;28;20468;-61
2023/08/23 03:13:13;;;;;;;2.50;1.75;;;;;;;22.97;47.27;101717.22;5072416;28;20124;-61
2023/08/23 03:15:40;;;;;;;12.13;1.27;;;;;;;22.96;47.44;101709.19;5072506;28;20084;-62
2023/08/23 03:18:05;;;;;;;2.47;1.13;;;;;;;22.93;47.24;101704.09;5054819;28;20037;-62
2023/08/23 03:20:31;;;;;;;4.80;1.13;;;;;;;22.92;47.55;101702.41;5072851;28;20397;-61
2023/08/23 03:22:56;;;;;;;3.35;1.10;;;;;;;22.90;47.62;101699.84;5072732;28;20029;-62
2023/08/23 03:25:21;;;;;;;3.10;1.92;;;;;;;22.88;47.58;101715.59;5071367;28;20044;-62
2023/08/23 03:27:52;;;;;;;1.27;1.17;;;;;;;22.86;46.75;101705.88;5072581;28;20024;-61
2023/08/23 03:30:18;;;;;;;5.28;1.00;;;;;;;22.84;46.73;101694.28;5071546;28;20029;-62
2023/08/23 03:32:43;;;;;;;2.42;1.27;;;;;;;22.82;46.95;101696.34;5071263;28;20039;-62
2023/08/23 03:35:09;;;;;;;1.38;0.75;;;;;;;22.80;47.03;101698.44;5072233;28;20036;-61
2023/08/23 03:37:34;;;;;;;1.13;0.82;;;;;;;22.79;46.96;101704.91;5071288;28;20029;-61
2023/08/23 03:39:59;;;;;;;1.98;1.00;;;;;;;22.75;46.95;101695.44;5072584;28;20595;-62
2023/08/23 03:42:25;;;;;;;1.52;1.25;;;;;;;22.75;47.05;101695.44;5072391;28;20425;-62
2023/08/23 03:44:51;;;;;;;3.53;1.13;;;;;;;22.75;46.67;101699.00;5071156;28;20039;-62
2023/08/23 03:47:17;;;;;;;5.43;1.48;;;;;;;22.74;46.98;101694.56;5072520;28;20029;-61
2023/08/23 03:49:42;;;;;;;1.50;1.20;;;;;;;22.73;47.19;101702.94;5071048;28;20025;-61
2023/08/23 03:52:26;;;;;;;3.90;1.30;;;;;;;22.74;46.94;101694.56;5072318;28;20028;-61
2023/08/23 03:54:51;;;;;;;1.38;0.95;;;;;;;22.71;47.68;101691.34;5072409;28;20093;-61
2023/08/23 03:57:17;;;;;;;3.15;1.08;;;;;;;22.71;47.69;101696.81;5071115;28;20493;-61
2023/08/23 03:59:42;;;;;;;1.42;1.10;;;;;;;22.70;47.72;101697.88;5073421;28;20025;-61
2023/08/23 04:02:08;;;;;;;1.98;1.10;;;;;;;22.70;46.94;101703.34;5075812;28;20120;-61
2023/08/23 04:04:33;;;;;;;1.60;1.00;;;;;;;22.66;47.54;101696.53;5074529;28;20408;-62
2023/08/23 04:06:58;;;;;;;2.80;1.10;;;;;;;22.67;47.33;101703.72;5074572;28;20403;-62
2023/08/23 04:09:24;;;;;;;2.80;1.73;;;;;;;22.66;47.42;101708.31;5057895;28;20033;-62
2023/08/23 04:11:49;;;;;;;5.22;1.60;;;;;;;22.64;47.19;101693.97;5074145;28;20119;-62
2023/08/23 04:14:14;;;;;;;5.95;1.45;;;;;;;22.61;47.13;101688.88;5075786;28;20109;-61
2023/08/23 04:16:40;;;;;;;2.80;1.75;;;;;;;22.60;48.15;101685.28;5074257;28;20111;-62
2023/08/23 04:19:05;;;;;;;1.38;1.27;;;;;;;22.59;46.98;101686.31;5074490;28;20044;-61
2023/08/23 04:21:31;;;;;;;2.80;1.33;;;;;;;22.60;47.21;101692.63;5074269;28;20036;-61
2023/08/23 04:23:56;;;;;;;2.75;1.52;;;;;;;22.62;48.08;101696.88;5074235;28;20032;-61
2023/08/23 04:26:21;;;;;;;5.38;1.88;;;;;;;22.61;48.15;101694.34;5074403;28;20025;-61
2023/08/23 04:28:47;;;;;;;3.22;1.27;;;;;;;22.60;47.27;101704.41;5075608;28;20044;-62
2023/08/23 04:31:12;;;;;;;2.85;1.65;;;;;;;22.59;47.90;101693.66;5075430;28;20040;-62
2023/08/23 04:33:40;;;;;;;2.58;1.50;;;;;;;22.57;47.96;101702.06;5075494;28;20025;-62
2023/08/23 04:36:05;;;;;;;9.45;1.75;;;;;;;22.55;47.91;101695.09;5074285;28;20036;-61
2023/08/23 04:38:31;;;;;;;1.92;1.65;;;;;;;22.48;47.01;101697.69;5073915;28;20101;-61
2023/08/23 04:41:00;;;;;;;2.88;1.35;;;;;;;22.48;48.01;101697.69;5075392;28;20091;-62
2023/08/23 04:43:25;;;;;;;2.63;1.23;;;;;;;22.49;47.69;101699.41;5074026;28;20499;-62
2023/08/23 04:45:54;;;;;;;1.10;1.02;;;;;;;22.50;47.24;101703.00;5075347;28;20032;-61
2023/08/23 04:48:19;;;;;;;3.40;1.95;;;;;;;22.48;47.92;101710.50;5076009;28;20059;-61
2023/08/23 04:50:50;;;;;;;1.48;1.02;;;;;;;22.49;48.17;101712.22;5058274;28;20508;-61
2023/08/23 04:53:15;;;;;;;1.73;0.90;;;;;;;22.46;47.82;101702.50;5073966;28;20040;-62
2023/08/23 04:55:40;;;;;;;3.00;1.35;;;;;;;22.46;48.03;101707.97;5074803;28;20039;-62
2023/08/23 04:58:06;;;;;;;3.00;1.23;;;;;;;22.48;47.49;101703.16;5073546;28;20039;-62
2023/08/23 05:00:32;;;;;;;1.70;1.23;;;;;;;22.46;47.54;101707.97;5073168;28;20044;-62
2023/08/23 05:02:57;;;;;;;1.17;1.00;;;;;;;22.48;48.39;101705.88;5072304;28;20487;-61
2023/08/23 05:05:22;;;;;;;3.00;1.15;;;;;;;22.48;48.43;101705.88;5073509;28;20086;-61
2023/08/23 05:07:49;;;;;;;1.33;1.05;;;;;;;22.49;47.74;101707.59;5073328;28;20459;-61
2023/08/23 05:10:15;;;;;;;1.67;0.70;;;;;;;22.52;48.52;101712.69;5073052;28;20408;-61
2023/08/23 05:12:40;;;;;;;3.60;1.13;;;;;;;22.58;47.36;101706.47;5071940;28;20039;-62
2023/08/23 05:15:06;;;;;;;3.67;1.20;;;;;;;22.64;48.31;101709.53;5073243;28;20097;-61
2023/08/23 05:17:31;;;;;;;4.70;1.40;;;;;;;22.70;47.47;101708.81;5074475;28;20063;-61
2023/08/23 05:19:57;;;;;;;2.28;1.30;;;;;;;22.75;48.03;101695.44;5073208;28;20619;-62
2023/08/23 05:22:22;;;;;;;2.63;1.30;;;;;;;22.83;48.04;101698.06;5062346;28;20123;-61
2023/08/23 05:24:47;;;;;;;5.78;1.50;;;;;;;22.91;47.38;101700.69;5054220;28;20029;-62
2023/08/23 05:27:13;;;;;;;3.70;1.80;;;;;;;22.98;47.49;101698.91;5054342;28;20080;-62
2023/08/23 05:29:38;;;;;;;6.70;1.88;;;;;;;23.08;47.49;101703.06;5053995;28;20033;-61
2023/08/23 05:32:03;;;;;;;2.63;1.30;;;;;;;23.18;47.81;101703.59;5053987;28;20094;-59
2023/08/23 05:34:29;;;;;;;3.67;1.63;;;;;;;23.27;48.37;101696.16;5054261;28;20457;-63
2023/08/23 05:36:55;;;;;;;2.03;1.45;;;;;;;23.37;48.06;101696.69;5052585;28;20044;-61
2023/08/23 05:39:20;;;;;;;8.43;2.10;;;;;;;23.48;47.81;101698.16;5052919;28;20033;-63
2023/08/23 05:41:45;;;;;;;6.47;2.33;;;;;;;23.60;47.47;101697.44;5052794;28;20060;-61
2023/08/23 05:44:11;;;;;;;4.75;1.60;;;;;;;23.73;47.67;101697.56;5053867;28;20404;-64
2023/08/23 05:46:36;;;;;;;5.40;1.85;;;;;;;23.88;47.39;101699.41;5053846;28;20115;-62
2023/08/23 05:49:01;;;;;;;3.72;1.85;;;;;;;24.03;47.92;101702.94;5053709;28;20052;-63
2023/08/23 05:51:27;;;;;;;6.07;1.80;;;;;;;24.16;47.65;101703.94;5053547;28;20040;-62
2023/08/23 05:53:52;;;;;;;1.65;1.55;;;;;;;24.32;47.72;101697.34;5054176;28;20469;-62
2023/08/23 05:56:17;;;;;;;4.53;1.98;;;;;;;24.50;47.83;101700.44;5052431;28;20431;-62
2023/08/23 05:58:43;;;;;;;3.70;1.88;;;;;;;24.68;47.74;101697.22;5035817;28;20025;-62
2023/08/23 06:01:08;;;;;;;2.95;1.85;;;;;;;24.88;47.51;101710.03;5053779;28;20051;-62
2023/08/23 06:03:33;;;;;;;2.10;1.70;;;;;;;25.09;47.39;101705.50;5052819;28;20435;-62
2023/08/23 06:05:59;;;;;;;4.25;1.95;;;;;;;25.31;47.37;101712.59;5054529;28;20056;-62
2023/08/23 06:08:24;;;;;;;3.78;1.70;;;;;;;25.54;47.11;101704.91;5055037;28;20045;-63
2023/08/23 06:10:50;;;;;;;3.95;1.98;;;;;;;25.75;47.13;101702.00;5053618;28;20033;-62
2023/08/23 06:13:15;;;;;;;6.18;1.98;;;;;;;25.95;46.67;101708.41;5054375;28;20095;-62
2023/08/23 06:15:41;;;;;;;8.00;2.17;;;;;;;26.14;46.93;101703.16;5053971;28;20505;-62
2023/08/23 06:18:06;;;;;;;7.45;2.08;;;;;;;26.32;46.64;101703.41;5052328;28;20021;-62
2023/08/23 06:20:32;;;;;;;4.18;2.10;;;;;;;26.50;46.34;101707.19;5053398;28;20017;-62
2023/08/23 06:22:58;;;;;;;2.83;1.95;;;;;;;26.67;46.02;101709.50;5051354;28;20473;-62
2023/08/23 06:25:24;;;;;;;5.70;2.20;;;;;;;26.85;45.85;101710.59;5051679;28;20452;-62
2023/08/23 06:27:49;;;;;;;6.68;1.95;;;;;;;27.04;45.97;101717.09;5053079;28;20109;-63
2023/08/23 06:30:17;;;;;;;3.97;2.08;;;;;;;27.21;45.99;101720.22;5051617;28;20028;-62
2023/08/23 06:32:47;;;;;;;5.28;2.35;;;;;;;27.41;46.20;101732.03;5053058;28;20071;-62
2023/08/23 06:35:13;;;;;;;4.03;2.17;;;;;;;27.58;45.95;101734.06;5035087;28;20021;-62
2023/08/23 06:37:39;;;;;;;6.57;2.20;;;;;;;27.77;45.24;101726.78;5051790;28;20027;-62
2023/08/23 06:40:05;;;;;;;4.53;2.83;;;;;;;27.95;45.65;101735.13;5053221;28;20107;-62
2023/08/23 06:42:30;;;;;;;14.65;4.47;;;;;;;28.14;45.04;101734.19;5034937;28;20025;-62
2023/08/23 06:44:55;;;;;;;6.53;2.72;;;;;;;28.31;45.04;101729.84;5053342;28;20556;-62
2023/08/23 06:47:21;;;;;;;6.28;2.90;;;;;;;28.50;45.33;101721.63;5035021;28;20457;-62
2023/08/23 06:49:46;;;;;;;7.78;3.25;;;;;;;28.67;44.41;101722.78;5051411;28;20083;-62
2023/08/23 06:52:11;;;;;;;6.70;2.33;;;;;;;28.78;44.14;101709.06;5051337;28;20039;-62
2023/08/23 06:54:37;;;;;;;6.13;3.80;;;;;;;28.99;44.62;101716.09;5052601;28;20493;-62
2023/08/23 06:57:02;;;;;;;7.13;3.08;;;;;;;29.20;43.51;101729.41;5051357;28;20033;-62
2023/08/23 06:59:27;;;;;;;13.27;3.85;;;;;;;29.40;43.77;101723.69;5052735;28;20063;-62
2023/08/23 07:01:53;;;;;;;18.90;9.38;;;;;;;29.57;43.38;101722.00;5051295;28;20113;-62
2023/08/23 07:04:18;;;;;;;16.08;8.82;;;;;;;29.71;43.49;101717.97;5052093;28;20036;-62
2023/08/23 07:06:43;;;;;;;19.08;10.20;;;;;;;29.90;43.33;101729.88;5052516;28;20036;-62
2023/08/23 07:09:10;;;;;;;31.67;17.02;;;;;;;30.08;43.21;101727.03;5051096;28;20033;-62
2023/08/23 07:11:35;;;;;;;37.85;19.65;;;;;;;30.22;42.73;101727.69;5051348;28;20059;-62
2023/08/23 07:14:01;;;;;;;39.47;18.55;;;;;;;30.38;42.61;101729.78;5052272;28;20401;-62
2023/08/23 07:16:26;;;;;;;39.03;19.70;;;;;;;30.50;42.41;101731.50;5051108;28;20029;-62
2023/08/23 07:18:52;;;;;;;38.17;19.52;;;;;;;30.62;42.03;101734.28;5034621;28;20036;-62
2023/08/23 07:21:17;;;;;;;33.72;17.42;;;;;;;30.78;41.59;101735.50;5052524;28;20381;-62
2023/08/23 07:23:43;;;;;;;31.35;17.90;;;;;;;30.93;41.64;101738.66;5050965;28;20029;-62
2023/08/23 07:26:09;;;;;;;35.45;16.67;;;;;;;31.10;41.07;101742.38;5052555;28;20032;-62
2023/08/23 07:28:34;;;;;;;26.85;15.20;;;;;;;31.22;40.90;101740.41;5034663;28;20033;-62
2023/08/23 07:31:02;;;;;;;25.38;13.80;;;;;;;31.42;40.40;101751.94;5034528;28;20538;-62
2023/08/23 07:33:27;;;;;;;22.45;13.45;;;;;;;31.64;40.40;101750.22;5051021;28;20405;-62
2023/08/23 07:35:57;;;;;;;27.98;13.77;;;;;;;31.70;40.54;101749.25;5055458;28;20029;-62
2023/08/23 07:38:23;;;;;;;30.13;14.30;;;;;;;31.91;40.20;101755.19;5055140;28;20488;-62
2023/08/23 07:40:48;;;;;;;24.58;13.45;;;;;;;32.10;40.09;101759.47;5055074;28;20025;-62
2023/08/23 07:43:13;;;;;;;22.88;12.82;;;;;;;32.31;39.79;101753.19;5038520;28;20025;-62
2023/08/23 07:45:39;;;;;;;26.48;13.55;;;;;;;32.48;38.71;101750.44;5056263;28;20033;-62
2023/08/23 07:48:05;;;;;;;27.23;14.68;;;;;;;32.66;38.54;101759.41;5054915;28;20029;-62
2023/08/23 07:50:30;;;;;;;35.78;17.92;;;;;;;32.78;38.64;101757.38;5055090;28;20025;-62
2023/08/23 07:52:56;;;;;;;30.17;16.25;;;;;;;32.93;39.09;101758.69;5054799;28;20040;-62
2023/08/23 07:55:21;;;;;;;30.48;15.30;;;;;;;33.05;38.05;101746.41;5055946;28;20516;-62
2023/08/23 07:57:46;;;;;;;28.20;15.52;;;;;;;33.24;37.63;101755.31;5071829;28;20036;-62
2023/08/23 08:00:12;;;;;;;27.20;15.55;;;;;;;33.38;37.87;101756.59;5074660;28;20071;-62
2023/08/23 08:02:37;;;;;;;27.17;16.15;;;;;;;33.52;37.60;101752.34;5075894;28;20395;-62
2023/08/23 08:05:03;;;;;;;33.95;16.13;;;;;;;33.66;37.75;101762.00;5076036;28;20056;-62
2023/08/23 08:07:30;;;;;;;21.83;13.85;;;;;;;33.80;37.12;101760.50;5075962;28;20037;-62
2023/08/23 08:09:56;;;;;;;25.08;13.43;;;;;;;33.96;36.34;101758.72;5076290;28;20024;-62
2023/08/23 08:12:21;;;;;;;24.48;10.98;;;;;;;34.11;36.66;101760.88;5076335;28;20090;-62
2023/08/23 08:14:47;;;;;;;21.75;11.38;;;;;;;34.24;35.83;101757.66;5075096;28;20044;-62
2023/08/23 08:17:12;;;;;;;21.35;12.82;;;;;;;34.40;36.51;101753.91;5075909;28;20040;-62
2023/08/23 08:19:37;;;;;;;25.25;12.07;;;;;;;34.51;36.35;101761.22;5075717;28;20036;-62
2023/08/23 08:22:03;;;;;;;21.85;11.82;;;;;;;34.63;36.17;101753.56;5075572;28;20396;-62
2023/08/23 08:24:28;;;;;;;20.27;10.70;;;;;;;34.76;35.35;101747.53;5074255;28;20120;-62
2023/08/23 08:26:54;;;;;;;21.92;10.88;;;;;;;34.91;35.71;101756.03;5075498;28;20504;-62
2023/08/23 08:29:19;;;;;;;23.15;9.80;;;;;;;35.00;35.26;101754.41;5073927;28;20400;-62
2023/08/23 08:31:45;;;;;;;19.42;11.00;;;;;;;35.12;35.31;101747.84;5073915;28;20063;-62
2023/08/23 08:34:10;;;;;;;21.25;12.05;;;;;;;35.25;35.51;101755.69;5073807;28;20068;-62
2023/08/23 08:36:35;;;;;;;25.42;12.32;;;;;;;35.40;35.27;101747.41;5075330;28;20044;-62
2023/08/23 08:39:01;;;;;;;18.63;10.98;;;;;;;35.53;34.59;101746.91;5075242;28;20025;-62
2023/08/23 08:41:26;;;;;;;21.05;11.27;;;;;;;35.72;34.66;101748.13;5074953;28;20127;-62
2023/08/23 08:43:52;;;;;;;23.15;12.48;;;;;;;35.84;34.13;101737.56;5075086;28;20025;-62
2023/08/23 08:46:17;;;;;;;21.38;12.02;;;;;;;35.96;34.08;101743.72;5073448;28;20391;-62
2023/08/23 08:48:44;;;;;;;20.08;11.52;;;;;;;36.01;34.06;101738.16;5074892;28;20052;-62
2023/08/23 08:51:18;;;;;;;25.48;11.30;;;;;;;36.07;33.93;101723.13;5075005;28;20024;-62
2023/08/23 08:53:44;;;;;;;19.80;11.82;;;;;;;36.19;33.91;101736.81;5073698;28;20090;-62
2023/08/23 08:56:11;;;;;;;19.52;11.90;;;;;;;36.31;33.84;101742.13;5073239;28;20496;-62
2023/08/23 08:58:36;;;;;;;28.88;12.80;;;;;;;36.43;33.85;101739.91;5073390;28;20040;-62
2023/08/23 09:01:02;;;;;;;22.13;12.88;;;;;;;36.52;33.48;101738.25;5073435;28;20028;-62
2023/08/23 09:03:28;;;;;;;24.42;13.05;;;;;;;36.64;33.48;101748.03;5073390;28;20028;-62
2023/08/23 09:05:54;;;;;;;17.58;10.80;;;;;;;36.80;33.13;101748.84;5073306;28;20396;-62
2023/08/23 09:08:19;;;;;;;20.55;12.63;;;;;;;36.94;32.91;101746.28;5074465;28;20105;-62
2023/08/23 09:10:44;;;;;;;17.45;11.10;;;;;;;37.06;33.16;101733.75;5073191;28;20542;-62
2023/08/23 09:13:10;;;;;;;20.50;11.70;;;;;;;37.21;32.45;101735.66;5072783;28;20060;-62
2023/08/23 09:15:35;;;;;;;22.67;10.35;;;;;;;37.29;32.65;101733.13;5073069;28;20500;-62
2023/08/23 09:18:01;;;;;;;17.50;10.15;;;;;;;37.39;32.59;101742.56;5072370;28;20067;-62
2023/08/23 09:20:26;;;;;;;23.98;10.55;;;;;;;37.50;31.72;101738.63;5072851;28;20029;-62
2023/08/23 09:22:53;;;;;;;20.77;11.45;;;;;;;37.60;31.60;101733.00;5074320;28;20044;-62
2023/08/23 09:25:18;;;;;;;18.23;10.77;;;;;;;37.73;31.66;101737.97;5072734;28;20059;-62
2023/08/23 09:27:44;;;;;;;15.52;10.20;;;;;;;37.85;31.69;101735.66;5072796;28;20060;-62
2023/08/23 09:30:09;;;;;;;18.65;10.25;;;;;;;37.98;32.41;101740.66;5074236;28;20032;-62
2023/08/23 09:32:35;;;;;;;16.83;9.13;;;;;;;38.10;31.97;101743.09;5072624;28;20116;-62
2023/08/23 09:35:14;;;;;;;19.05;10.82;;;;;;;38.28;31.58;101745.19;5072995;28;20036;-63
2023/08/23 09:37:44;;;;;;;10.25;6.22;;;;;;;38.29;31.24;101744.91;5072916;28;20526;-62
2023/08/23 09:40:22;;;;;;;20.55;9.82;;;;;;;38.39;32.03;101746.81;5072730;28;20043;-62
2023/08/23 09:42:49;;;;;;;14.50;6.95;;;;;;;38.47;31.82;101747.00;5072713;28;20052;-62
2023/08/23 09:45:19;;;;;;;12.65;6.18;;;;;;;38.56;30.53;101740.81;5072400;28;20059;-63
2023/08/23 09:47:52;;;;;;;12.57;7.05;;;;;;;38.76;31.17;101740.59;5055753;28;20116;-63
2023/08/23 09:50:18;;;;;;;12.07;5.60;;;;;;;39.19;30.67;101731.19;5073708;28;20036;-63
2023/08/23 09:52:45;;;;;;;12.95;5.90;;;;;;;39.85;30.04;101741.59;5072636;28;20028;-63
2023/08/23 09:55:14;;;;;;;10.18;5.30;;;;;;;40.80;29.28;101742.03;5073604;28;20486;-63
2023/08/23 09:57:40;;;;;;;12.50;5.50;;;;;;;42.54;27.52;101748.09;5071765;28;20471;-63
2023/08/23 10:00:07;;;;;;;15.02;5.72;;;;;;;43.96;25.33;101759.88;5072302;28;20052;-62
2023/08/23 10:02:32;;;;;;;9.20;4.03;;;;;;;43.61;26.05;101749.63;5073451;28;20032;-62
2023/08/23 10:05:00;;;;;;;11.43;4.95;;;;;;;43.09;26.53;101748.63;5055208;28;20082;-62
2023/08/23 10:07:26;;;;;;;10.30;4.15;;;;;;;42.75;26.80;101746.44;5072122;28;20033;-62
2023/08/23 10:09:51;;;;;;;6.38;3.03;;;;;;;42.57;27.10;101741.84;5072149;28;20028;-62
2023/08/23 10:12:17;;;;;;;8.13;3.85;;;;;;;42.54;27.09;101739.66;5071775;28;20039;-62
2023/08/23 10:14:44;;;;;;;8.88;4.97;;;;;;;42.55;26.79;101732.88;5071689;28;20504;-62
2023/08/23 10:17:11;;;;;;;10.27;4.78;;;;;;;42.64;26.87;101738.56;5071817;28;20041;-62
2023/08/23 10:19:37;;;;;;;9.38;5.57;;;;;;;42.72;26.48;101738.59;5055216;28;20097;-62
2023/08/23 10:22:03;;;;;;;9.23;5.15;;;;;;;42.82;26.36;101732.72;5055096;28;20555;-62
2023/08/23 10:24:29;;;;;;;8.93;5.10;;;;;;;42.98;26.07;101732.31;5073370;28;20033;-62
2023/08/23 10:26:54;;;;;;;9.52;5.90;;;;;;;43.16;26.63;101736.88;5072233;28;20036;-62
2023/08/23 10:29:27;;;;;;;8.80;5.45;;;;;;;43.34;25.91;101738.59;5073606;28;20169;-63
2023/08/23 10:31:54;;;;;;;11.85;5.72;;;;;;;43.52;26.16;101731.88;5072809;28;20036;-63
2023/08/23 10:34:26;;;;;;;11.32;5.65;;;;;;;43.69;26.24;101733.88;5073392;28;20020;-62
2023/08/23 10:36:53;;;;;;;10.43;5.30;;;;;;;43.87;25.42;101725.13;5073160;28;20100;-62
2023/08/23 10:39:22;;;;;;;12.68;5.88;;;;;;;44.04;25.57;101725.13;5074634;28;20031;-62
2023/08/23 10:41:51;;;;;;;10.55;6.78;;;;;;;44.18;25.27;101724.13;5072154;28;20025;-62
2023/08/23 10:44:17;;;;;;;14.75;6.15;;;;;;;44.26;25.37;101726.97;5073472;28;20037;-62
2023/08/23 10:46:44;;;;;;;13.23;5.53;;;;;;;44.38;25.05;101717.81;5073379;28;20032;-62
2023/08/23 10:49:11;;;;;;;13.82;5.78;;;;;;;44.48;25.08;101717.44;5073495;28;20029;-62
2023/08/23 10:51:41;;;;;;;10.73;5.32;;;;;;;44.54;24.88;101704.81;5072135;28;20021;-62
2023/08/23 10:54:16;;;;;;;10.82;5.50;;;;;;;44.63;24.91;101702.81;5070842;28;20056;-62
2023/08/23 10:56:42;;;;;;;8.32;5.05;;;;;;;44.82;24.79;101716.53;5071442;28;20036;-62
2023/08/23 10:59:07;;;;;;;8.13;4.45;;;;;;;44.90;24.18;101710.88;5072668;28;20033;-62
2023/08/23 11:01:34;;;;;;;9.10;4.63;;;;;;;44.99;23.87;101703.19;5072629;28;20032;-63
2023/08/23 11:04:03;;;;;;;9.40;4.85;;;;;;;45.06;24.29;101706.31;5071370;28;20036;-63
2023/08/23 11:06:28;;;;;;;9.98;4.93;;;;;;;45.17;23.96;101700.28;5072625;28;20043;-62
2023/08/23 11:08:54;;;;;;;9.60;5.13;;;;;;;45.24;23.65;101697.72;5056243;28;20104;-62
2023/08/23 11:11:19;;;;;;;12.30;6.35;;;;;;;45.16;23.32;101682.47;5076798;28;20097;-63
2023/08/23 11:13:46;;;;;;;6.85;4.55;;;;;;;45.09;23.44;101688.66;5058592;28;20049;-63
2023/08/23 11:16:11;;;;;;;12.00;4.88;;;;;;;45.13;23.63;101689.63;5076713;28;20085;-63